Time;durP1;ratioP1;P1;durP2;ratioP2;P2;SDS_P1;SDS_P2;PMS_P1;PMS_P2;Temp;Humidity;BMP_temperature;BMP_pressure;BME280_temperature;BME280_humidity;BME280_pressure;Samples;Min_cycle;Max_cycle;Signal;HPM_P1;HPM_P2
2023/06/18 00:00:48;;;;;;;41.10;28.45;;;17.00;99.90;;;;;;5037424;28;20033;-69
2023/06/18 00:03:13;;;;;;;39.92;29.23;;;17.00;99.90;;;;;;5037266;28;20390;-69
2023/06/18 00:05:39;;;;;;;37.13;27.77;;;16.90;99.90;;;;;;5037379;28;20102;-69
2023/06/18 00:08:05;;;;;;;41.97;29.83;;;17.00;99.90;;;;;;5020563;28;20040;-69
2023/06/18 00:10:32;;;;;;;44.53;30.27;;;17.00;99.90;;;;;;5036953;28;20075;-69
2023/06/18 00:12:57;;;;;;;40.92;28.73;;;16.90;99.90;;;;;;5037107;28;20047;-69
2023/06/18 00:15:23;;;;;;;46.60;30.40;;;16.80;99.90;;;;;;5037177;28;20044;-69
2023/06/18 00:17:48;;;;;;;40.97;29.65;;;16.80;99.90;;;;;;5020524;28;20029;-70
2023/06/18 00:20:14;;;;;;;43.40;28.08;;;;;;;;;;5036911;28;20043;-69
2023/06/18 00:22:41;;;;;;;41.88;29.42;;;16.90;99.90;;;;;;5037215;28;20041;-69
2023/06/18 00:25:08;;;;;;;44.70;31.13;;;16.70;99.90;;;;;;5036851;28;20040;-69
2023/06/18 00:27:33;;;;;;;41.20;28.35;;;16.50;99.90;;;;;;5036442;28;20048;-69
2023/06/18 00:30:04;;;;;;;42.80;27.52;;;16.60;99.90;;;;;;5036607;28;20041;-69
2023/06/18 00:32:30;;;;;;;39.65;29.92;;;16.70;99.90;;;;;;5020536;28;20388;-69
2023/06/18 00:34:56;;;;;;;39.05;27.85;;;16.70;99.90;;;;;;5036846;28;20041;-69
2023/06/18 00:37:25;;;;;;;38.97;27.65;;;16.60;99.90;;;;;;5036286;28;20561;-69
2023/06/18 00:39:51;;;;;;;39.53;28.27;;;16.70;99.90;;;;;;5019855;28;20044;-69
2023/06/18 00:42:18;;;;;;;41.63;28.55;;;;;;;;;;5036934;28;20124;-70
2023/06/18 00:44:44;;;;;;;42.90;29.35;;;16.60;99.90;;;;;;5035838;28;20064;-69
2023/06/18 00:47:12;;;;;;;40.88;29.77;;;16.60;99.90;;;;;;5035669;28;20033;-69
2023/06/18 00:49:40;;;;;;;41.08;30.45;;;16.50;99.90;;;;;;5036310;28;20053;-69
2023/06/18 00:52:08;;;;;;;38.50;28.55;;;16.70;99.90;;;;;;5036343;28;20098;-69
2023/06/18 00:54:35;;;;;;;38.97;28.27;;;16.60;99.90;;;;;;5036664;28;20396;-69
2023/06/18 00:57:03;;;;;;;41.72;29.17;;;16.50;99.90;;;;;;5035844;28;20033;-69
2023/06/18 00:59:29;;;;;;;42.30;28.90;;;16.40;99.90;;;;;;5035914;28;20060;-69
2023/06/18 01:01:56;;;;;;;41.88;28.77;;;16.40;99.90;;;;;;5036269;28;20036;-69
2023/06/18 01:04:26;;;;;;;43.38;30.88;;;16.40;99.90;;;;;;5036270;28;20122;-69
2023/06/18 01:06:55;;;;;;;39.70;29.17;;;16.50;99.90;;;;;;5019321;28;20055;-69
2023/06/18 01:09:23;;;;;;;40.58;29.17;;;16.70;99.90;;;;;;5053880;28;20045;-69
2023/06/18 01:11:52;;;;;;;40.47;28.92;;;16.50;99.90;;;;;;5036132;28;20504;-69
2023/06/18 01:14:23;;;;;;;44.88;29.98;;;16.60;99.90;;;;;;5036143;28;20045;-69
2023/06/18 01:17:07;;;;;;;41.65;28.90;;;16.40;99.90;;;;;;5035588;28;20521;-69
2023/06/18 01:19:58;;;;;;;41.60;30.00;;;16.60;99.90;;;;;;5036195;28;20048;-69
2023/06/18 01:22:57;;;;;;;39.40;27.60;;;16.50;99.90;;;;;;5036215;28;20071;-69
2023/06/18 01:25:27;;;;;;;41.53;29.85;;;16.40;99.90;;;;;;5035754;28;20041;-69
2023/06/18 01:27:54;;;;;;;40.28;28.83;;;16.20;99.90;;;;;;5035491;28;20118;-69
2023/06/18 01:30:20;;;;;;;41.90;30.80;;;16.40;99.90;;;;;;5035430;28;20041;-69
2023/06/18 01:32:46;;;;;;;40.15;29.70;;;16.40;99.90;;;;;;5019440;28;20037;-69
2023/06/18 01:35:16;;;;;;;43.83;32.30;;;16.40;99.90;;;;;;5018900;28;20033;-69
2023/06/18 01:38:02;;;;;;;44.47;30.92;;;16.30;99.90;;;;;;5035311;28;20040;-69
2023/06/18 01:40:56;;;;;;;43.55;30.45;;;16.40;99.90;;;;;;5035685;28;20128;-69
2023/06/18 01:43:31;;;;;;;44.97;31.73;;;16.30;99.90;;;;;;5035530;28;20045;-69
2023/06/18 01:46:13;;;;;;;43.80;31.05;;;16.30;99.90;;;;;;5035285;28;20448;-69
2023/06/18 01:49:06;;;;;;;44.55;31.40;;;16.30;99.90;;;;;;5035278;28;20052;-69
2023/06/18 01:51:33;;;;;;;47.88;31.60;;;16.10;99.90;;;;;;5035425;28;20033;-69
2023/06/18 01:54:01;;;;;;;45.90;32.15;;;16.30;99.90;;;;;;5018779;28;20049;-69
2023/06/18 01:56:30;;;;;;;46.20;31.95;;;16.30;99.90;;;;;;5018485;28;20048;-69
2023/06/18 01:58:56;;;;;;;42.03;30.10;;;16.20;99.90;;;;;;5035223;28;20051;-69
2023/06/18 02:01:22;;;;;;;46.67;31.67;;;16.40;99.90;;;;;;5035362;28;20124;-69
2023/06/18 02:03:48;;;;;;;41.67;31.30;;;16.10;99.90;;;;;;5018808;28;20129;-69
2023/06/18 02:06:14;;;;;;;43.13;30.20;;;16.20;99.90;;;;;;5034736;28;20040;-69
2023/06/18 02:08:40;;;;;;;43.28;30.65;;;16.20;99.90;;;;;;5034545;28;20045;-69
2023/06/18 02:11:06;;;;;;;38.60;29.08;;;16.10;99.90;;;;;;5034317;28;20452;-69
2023/06/18 02:13:32;;;;;;;43.22;31.52;;;16.20;99.90;;;;;;5034834;28;20037;-69
2023/06/18 02:15:58;;;;;;;42.17;30.08;;;;;;;;;;5034202;28;20045;-69
2023/06/18 02:18:23;;;;;;;42.40;29.50;;;16.00;99.90;;;;;;5034866;28;20052;-69
2023/06/18 02:20:50;;;;;;;41.75;29.02;;;16.10;99.90;;;;;;5034787;28;20076;-69
2023/06/18 02:23:16;;;;;;;44.50;31.17;;;;;;;;;;5034793;28;20491;-69
2023/06/18 02:25:44;;;;;;;43.40;28.88;;;16.20;99.90;;;;;;5017728;28;20037;-69
2023/06/18 02:28:11;;;;;;;40.25;28.13;;;16.10;99.90;;;;;;5034528;28;20041;-69
2023/06/18 02:30:37;;;;;;;42.97;28.83;;;16.30;99.90;;;;;;5034485;28;20037;-69
2023/06/18 02:33:07;;;;;;;46.63;31.33;;;16.10;99.90;;;;;;5034831;28;20033;-69
2023/06/18 02:35:33;;;;;;;38.40;27.85;;;16.20;99.90;;;;;;5034395;28;20037;-69
2023/06/18 02:37:58;;;;;;;40.85;28.48;;;16.00;99.90;;;;;;5033952;28;20044;-69
2023/06/18 02:40:24;;;;;;;40.55;29.08;;;16.00;99.90;;;;;;5017811;28;20037;-69
2023/06/18 02:42:52;;;;;;;42.10;29.05;;;16.20;99.90;;;;;;5018187;28;20060;-69
2023/06/18 02:45:19;;;;;;;41.80;28.58;;;16.20;99.90;;;;;;5034189;28;20273;-69
2023/06/18 02:47:45;;;;;;;39.13;28.40;;;16.10;99.90;;;;;;5033993;28;20053;-69
2023/06/18 02:50:12;;;;;;;42.65;28.70;;;16.20;99.90;;;;;;5033528;28;20045;-69
2023/06/18 02:52:38;;;;;;;40.45;28.45;;;16.00;99.90;;;;;;5034177;28;20043;-69
2023/06/18 02:55:06;;;;;;;41.33;28.50;;;15.90;99.90;;;;;;5034084;28;20036;-69
2023/06/18 02:57:32;;;;;;;40.80;27.23;;;;;;;;;;5033762;28;20072;-69
2023/06/18 02:59:57;;;;;;;38.78;26.25;;;15.80;99.90;;;;;;5033865;28;20215;-69
2023/06/18 03:02:23;;;;;;;38.65;27.08;;;16.10;99.90;;;;;;5017666;28;20044;-69
2023/06/18 03:04:49;;;;;;;37.38;27.25;;;15.80;99.90;;;;;;5033753;28;20048;-68
2023/06/18 03:07:14;;;;;;;41.70;28.23;;;16.00;99.90;;;;;;5033466;28;20048;-69
2023/06/18 03:09:40;;;;;;;40.28;28.77;;;;;;;;;;5033736;28;20045;-69
2023/06/18 03:12:06;;;;;;;41.10;29.92;;;;;;;;;;5033901;28;20041;-69
2023/06/18 03:14:32;;;;;;;43.72;29.55;;;;;;;;;;5033823;28;20064;-69
2023/06/18 03:16:58;;;;;;;40.80;27.48;;;15.70;99.90;;;;;;5034059;28;20079;-73
2023/06/18 03:19:23;;;;;;;41.85;27.98;;;15.90;99.90;;;;;;5033601;28;20041;-71
2023/06/18 03:21:50;;;;;;;38.08;28.30;;;;;;;;;;5033559;28;20064;-72
2023/06/18 03:24:15;;;;;;;39.40;28.52;;;16.00;99.90;;;;;;5017691;28;20258;-71
2023/06/18 03:26:43;;;;;;;38.50;27.23;;;15.90;99.90;;;;;;5033886;28;20083;-71
2023/06/18 03:29:08;;;;;;;37.10;27.80;;;16.00;99.90;;;;;;5033523;28;20124;-71
2023/06/18 03:31:35;;;;;;;38.17;27.35;;;16.10;99.90;;;;;;5033566;28;20126;-72
2023/06/18 03:34:01;;;;;;;37.13;26.58;;;16.10;99.90;;;;;;5033623;28;20041;-71
2023/06/18 03:36:34;;;;;;;39.55;27.90;;;15.90;99.90;;;;;;5033174;28;20048;-71
2023/06/18 03:39:00;;;;;;;36.60;25.02;;;16.00;99.90;;;;;;5033516;28;20033;-72
2023/06/18 03:41:27;;;;;;;36.70;26.88;;;;;;;;;;5033599;28;20455;-72
2023/06/18 03:43:52;;;;;;;37.40;25.95;;;15.90;99.90;;;;;;5051490;28;20053;-71
2023/06/18 03:46:19;;;;;;;38.60;27.30;;;16.10;99.90;;;;;;5033027;28;20051;-71
2023/06/18 03:48:44;;;;;;;34.85;24.83;;;15.90;99.90;;;;;;5033384;28;20378;-71
2023/06/18 03:51:10;;;;;;;37.22;25.92;;;;;;;;;;5033561;28;20175;-72
2023/06/18 03:53:37;;;;;;;35.17;25.15;;;16.10;99.90;;;;;;5017025;28;20044;-71
2023/06/18 03:56:03;;;;;;;34.28;25.30;;;15.90;99.90;;;;;;5032991;28;20095;-71
2023/06/18 03:58:30;;;;;;;33.10;24.98;;;15.90;99.90;;;;;;5033241;28;20037;-71
2023/06/18 04:00:55;;;;;;;34.78;25.98;;;16.00;99.90;;;;;;5033462;28;20048;-71
2023/06/18 04:03:22;;;;;;;37.33;26.52;;;16.20;99.90;;;;;;5033162;28;20426;-71
2023/06/18 04:05:48;;;;;;;37.97;26.70;;;15.90;99.90;;;;;;5032881;28;20037;-71
2023/06/18 04:08:14;;;;;;;36.05;25.92;;;16.00;99.90;;;;;;5033149;28;20507;-71
2023/06/18 04:10:40;;;;;;;37.83;27.10;;;16.00;99.90;;;;;;5033210;28;20075;-71
2023/06/18 04:13:06;;;;;;;38.45;25.95;;;16.10;99.90;;;;;;5016898;28;20071;-71
2023/06/18 04:15:32;;;;;;;39.30;27.33;;;16.30;99.90;;;;;;5033094;28;20064;-71
2023/06/18 04:17:58;;;;;;;35.47;24.40;;;;;;;;;;5033047;28;20044;-71
2023/06/18 04:20:24;;;;;;;37.08;24.98;;;;;;;;;;5016572;28;20043;-72
2023/06/18 04:22:50;;;;;;;35.78;24.55;;;16.10;99.90;;;;;;5033284;28;20127;-71
2023/06/18 04:25:16;;;;;;;38.97;27.60;;;;;;;;;;5033111;28;20619;-72
2023/06/18 04:27:42;;;;;;;35.65;25.45;;;16.20;99.90;;;;;;5032754;28;20051;-71
2023/06/18 04:30:08;;;;;;;36.00;25.05;;;16.30;99.90;;;;;;5032882;28;20045;-73
2023/06/18 04:32:34;;;;;;;35.47;25.08;;;;;;;;;;5032982;28;20033;-73
2023/06/18 04:35:00;;;;;;;32.80;24.00;;;;;;;;;;5019632;28;20493;-70
2023/06/18 04:37:27;;;;;;;36.47;25.73;;;;;;;;;;5036282;28;20095;-72
2023/06/18 04:39:53;;;;;;;37.92;25.52;;;;;;;;;;5036507;28;20041;-72
2023/06/18 04:42:19;;;;;;;40.03;27.75;;;;;;;;;;5036640;28;20449;-75
2023/06/18 04:44:44;;;;;;;35.08;25.33;;;16.40;99.90;;;;;;5036570;28;20041;-71
2023/06/18 04:47:10;;;;;;;37.58;27.65;;;16.40;99.90;;;;;;5019536;28;20049;-71
2023/06/18 04:49:35;;;;;;;39.15;28.08;;;16.40;99.90;;;;;;5036271;28;20040;-71
2023/06/18 04:52:01;;;;;;;35.67;25.98;;;;;;;;;;5036783;28;20037;-71
2023/06/18 04:54:27;;;;;;;41.15;27.63;;;;;;;;;;5036443;28;20037;-71
2023/06/18 04:56:53;;;;;;;35.75;25.85;;;16.40;99.90;;;;;;5019399;28;20041;-73
2023/06/18 04:59:19;;;;;;;34.00;24.75;;;16.50;99.90;;;;;;5036435;28;20037;-71
2023/06/18 05:01:44;;;;;;;36.10;25.30;;;16.50;99.90;;;;;;5036197;28;20125;-71
2023/06/18 05:04:11;;;;;;;36.70;26.17;;;16.60;99.90;;;;;;5019811;28;20075;-71
2023/06/18 05:06:37;;;;;;;40.85;27.67;;;16.50;99.90;;;;;;5035693;28;20522;-71
2023/06/18 05:09:03;;;;;;;42.35;28.92;;;16.60;99.90;;;;;;5019543;28;20136;-71
2023/06/18 05:11:29;;;;;;;37.75;26.95;;;16.70;99.90;;;;;;5036202;28;20069;-71
2023/06/18 05:13:55;;;;;;;39.15;26.48;;;16.70;99.90;;;;;;5036084;28;20060;-71
2023/06/18 05:16:20;;;;;;;37.40;26.45;;;16.60;99.90;;;;;;5018911;28;20142;-71
2023/06/18 05:18:46;;;;;;;36.65;25.50;;;;;;;;;;5035832;28;20471;-71
2023/06/18 05:21:12;;;;;;;36.63;26.02;;;16.80;99.90;;;;;;5019851;28;20044;-70
2023/06/18 05:23:37;;;;;;;38.15;26.88;;;16.80;99.90;;;;;;5036031;28;20106;-71
2023/06/18 05:26:03;;;;;;;36.05;26.33;;;17.10;99.90;;;;;;5035392;28;20059;-71
2023/06/18 05:28:29;;;;;;;38.38;27.05;;;17.00;99.90;;;;;;5036003;28;20041;-71
2023/06/18 05:30:55;;;;;;;39.05;27.48;;;;;;;;;;5035809;28;20123;-71
2023/06/18 05:33:20;;;;;;;38.65;27.13;;;16.70;99.90;;;;;;5035770;28;20052;-72
2023/06/18 05:35:46;;;;;;;35.63;25.92;;;16.90;99.90;;;;;;5035356;28;20041;-71
2023/06/18 05:38:12;;;;;;;39.08;27.00;;;17.00;99.90;;;;;;5019047;28;20029;-71
2023/06/18 05:40:37;;;;;;;38.35;26.85;;;17.20;99.90;;;;;;5019229;28;20056;-71
2023/06/18 05:43:03;;;;;;;36.47;26.65;;;;;;;;;;5035552;28;20497;-71
2023/06/18 05:45:29;;;;;;;38.17;27.15;;;17.40;99.90;;;;;;5018754;28;20416;-71
2023/06/18 05:47:54;;;;;;;38.60;26.42;;;17.50;99.90;;;;;;5018794;28;20041;-71
2023/06/18 05:50:20;;;;;;;37.03;24.83;;;;;;;;;;5018765;28;20041;-71
2023/06/18 05:52:46;;;;;;;35.90;25.83;;;17.90;99.90;;;;;;5035945;28;20033;-71
2023/06/18 05:55:12;;;;;;;34.03;24.40;;;;;;;;;;5036817;28;20259;-72
2023/06/18 05:57:38;;;;;;;37.15;24.90;;;;;;;;;;5035651;28;20041;-72
2023/06/18 06:00:04;;;;;;;34.50;23.88;;;18.40;99.90;;;;;;5035041;28;20047;-71
2023/06/18 06:02:30;;;;;;;35.30;24.70;;;18.30;99.90;;;;;;5035283;28;20040;-71
2023/06/18 06:04:55;;;;;;;32.47;23.92;;;18.30;99.90;;;;;;5035246;28;20063;-71
2023/06/18 06:07:21;;;;;;;35.03;26.08;;;18.40;99.90;;;;;;5034206;28;20040;-71
2023/06/18 06:09:47;;;;;;;37.90;25.90;;;18.30;99.90;;;;;;5034807;28;20128;-72
2023/06/18 06:12:13;;;;;;;36.03;25.13;;;18.40;99.90;;;;;;5017613;28;20032;-70
2023/06/18 06:14:39;;;;;;;32.08;24.00;;;;;;;;;;5040799;28;20032;-72
2023/06/18 06:17:05;;;;;;;35.00;24.75;;;18.30;99.90;;;;;;5021844;28;20416;-70
2023/06/18 06:19:30;;;;;;;33.80;24.00;;;18.40;99.90;;;;;;5004039;28;20127;-71
2023/06/18 06:21:56;;;;;;;36.45;25.67;;;;;;;;;;5023770;28;20072;-70
2023/06/18 06:24:22;;;;;;;33.08;22.75;;;18.60;99.90;;;;;;5007081;28;20038;-71
2023/06/18 06:26:47;;;;;;;30.70;23.42;;;18.70;99.90;;;;;;5031270;28;20127;-72
2023/06/18 06:29:13;;;;;;;29.77;23.33;;;18.70;99.90;;;;;;5031133;28;20033;-71
2023/06/18 06:31:38;;;;;;;32.35;23.55;;;18.80;99.90;;;;;;5019350;28;20040;-72
2023/06/18 06:34:04;;;;;;;35.70;24.38;;;18.80;99.90;;;;;;5015035;28;20044;-71
2023/06/18 06:36:30;;;;;;;33.20;23.98;;;18.90;99.90;;;;;;5014294;28;20041;-72
2023/06/18 06:38:55;;;;;;;31.25;23.13;;;19.20;99.90;;;;;;4998289;28;20045;-71
2023/06/18 06:41:23;;;;;;;35.42;23.40;;;19.20;99.90;;;;;;5015330;28;20068;-71
2023/06/18 06:43:50;;;;;;;35.00;23.90;;;19.40;99.90;;;;;;5015105;28;20131;-71
2023/06/18 06:46:16;;;;;;;36.20;25.40;;;19.40;99.90;;;;;;4997989;28;20049;-71
2023/06/18 06:48:41;;;;;;;34.65;24.73;;;19.50;99.90;;;;;;5014667;28;20041;-71
2023/06/18 06:51:07;;;;;;;31.60;22.65;;;19.30;99.90;;;;;;5014937;28;20095;-71
2023/06/18 06:53:32;;;;;;;30.75;22.63;;;19.20;99.90;;;;;;5014600;28;20040;-73
2023/06/18 06:55:58;;;;;;;26.90;20.63;;;19.50;99.90;;;;;;5013702;28;20117;-71
2023/06/18 06:58:24;;;;;;;34.28;22.98;;;19.40;99.90;;;;;;5014503;28;20053;-71
2023/06/18 07:00:50;;;;;;;32.90;22.58;;;19.70;99.90;;;;;;5014213;28;20033;-71
2023/06/18 07:03:16;;;;;;;29.48;22.08;;;19.80;99.90;;;;;;5014306;28;20042;-71
2023/06/18 07:05:42;;;;;;;33.70;24.35;;;;;;;;;;5014629;28;20072;-71
2023/06/18 07:08:08;;;;;;;32.40;23.38;;;19.80;99.90;;;;;;5043917;28;20124;-72
2023/06/18 07:10:34;;;;;;;32.97;21.92;;;20.10;99.90;;;;;;5033573;28;20037;-73
2023/06/18 07:13:00;;;;;;;31.05;22.40;;;20.10;99.90;;;;;;5034059;28;20037;-71
2023/06/18 07:15:25;;;;;;;33.63;23.42;;;20.60;99.90;;;;;;5050299;28;20515;-70
2023/06/18 07:17:51;;;;;;;34.85;23.15;;;20.50;99.90;;;;;;5032582;28;20082;-71
2023/06/18 07:20:16;;;;;;;29.27;22.00;;;20.60;99.90;;;;;;5033488;28;20091;-71
2023/06/18 07:22:42;;;;;;;30.63;22.73;;;20.80;99.90;;;;;;5034110;28;20048;-73
2023/06/18 07:25:08;;;;;;;32.15;23.30;;;21.00;99.90;;;;;;5027359;28;20084;-71
2023/06/18 07:27:34;;;;;;;29.48;20.25;;;21.00;99.90;;;;;;5029187;28;20055;-71
2023/06/18 07:30:00;;;;;;;26.23;20.25;;;21.40;99.90;;;;;;5029480;28;20083;-71
2023/06/18 07:32:25;;;;;;;28.27;21.52;;;21.60;99.90;;;;;;5035046;28;20044;-71
2023/06/18 07:34:51;;;;;;;28.98;20.33;;;21.50;99.90;;;;;;5029746;28;20037;-70
2023/06/18 07:37:17;;;;;;;28.38;22.08;;;21.60;99.90;;;;;;5029142;28;20025;-73
2023/06/18 07:39:42;;;;;;;32.63;20.50;;;21.70;99.90;;;;;;5029206;28;20468;-71
2023/06/18 07:42:08;;;;;;;28.10;19.48;;;21.90;99.90;;;;;;5029020;28;20045;-72
2023/06/18 07:44:33;;;;;;;27.77;20.67;;;22.00;99.90;;;;;;5011892;28;20053;-73
2023/06/18 07:46:59;;;;;;;27.77;19.88;;;22.30;99.90;;;;;;5012462;28;20029;-73
2023/06/18 07:49:24;;;;;;;23.58;17.63;;;22.30;99.90;;;;;;5028880;28;20044;-71
2023/06/18 07:51:50;;;;;;;25.88;19.00;;;23.40;99.90;;;;;;5028512;28;20040;-73
2023/06/18 07:54:16;;;;;;;28.88;20.63;;;22.60;99.90;;;;;;5008396;28;20056;-72
2023/06/18 07:56:41;;;;;;;26.67;19.92;;;22.30;99.90;;;;;;5046476;28;20045;-72
2023/06/18 07:59:07;;;;;;;23.98;18.10;;;21.80;99.90;;;;;;5025101;28;20045;-71
2023/06/18 08:01:33;;;;;;;24.05;18.85;;;22.10;99.90;;;;;;5013054;28;20071;-71
2023/06/18 08:03:59;;;;;;;30.58;20.67;;;22.20;99.90;;;;;;5023618;28;20037;-71
2023/06/18 08:06:25;;;;;;;22.63;17.67;;;22.40;99.90;;;;;;5023584;28;20069;-71
2023/06/18 08:08:50;;;;;;;30.85;18.98;;;22.60;99.90;;;;;;5011771;28;20040;-72
2023/06/18 08:11:17;;;;;;;23.35;18.63;;;22.40;99.90;;;;;;5010732;28;20550;-75
2023/06/18 08:13:43;;;;;;;23.65;18.48;;;22.70;99.90;;;;;;5025848;28;20084;-75
2023/06/18 08:16:09;;;;;;;26.00;17.60;;;22.60;99.90;;;;;;5025437;28;20033;-75
2023/06/18 08:18:35;;;;;;;24.17;16.60;;;22.90;99.90;;;;;;5010862;28;20048;-74
2023/06/18 08:21:01;;;;;;;26.58;18.65;;;22.80;99.90;;;;;;5025527;28;20037;-74
2023/06/18 08:23:27;;;;;;;23.42;17.70;;;22.60;99.90;;;;;;5026525;28;20063;-74
2023/06/18 08:25:52;;;;;;;24.70;17.85;;;22.70;99.90;;;;;;5026574;28;20030;-74
2023/06/18 08:28:18;;;;;;;27.10;17.35;;;23.00;99.90;;;;;;5025345;28;20095;-73
2023/06/18 08:30:43;;;;;;;27.90;18.02;;;22.00;99.90;;;;;;5026718;28;20504;-74
2023/06/18 08:33:12;;;;;;;22.60;17.08;;;24.40;99.90;;;;;;5026610;28;20120;-73
2023/06/18 08:35:38;;;;;;;17.30;13.50;;;23.10;99.90;;;;;;5008563;28;20076;-73
2023/06/18 08:38:04;;;;;;;22.80;15.40;;;23.30;99.90;;;;;;5026152;28;20487;-74
2023/06/18 08:40:35;;;;;;;21.33;14.73;;;23.20;99.90;;;;;;5026407;28;20073;-73
2023/06/18 08:43:01;;;;;;;20.25;14.10;;;23.40;99.90;;;;;;5025326;28;20029;-74
2023/06/18 08:45:27;;;;;;;18.40;14.05;;;23.50;99.90;;;;;;5019923;28;20571;-73
2023/06/18 08:47:58;;;;;;;22.17;14.20;;;24.40;99.90;;;;;;5019909;28;20044;-74
2023/06/18 08:50:25;;;;;;;15.48;12.20;;;23.60;99.90;;;;;;5006439;28;20087;-73
2023/06/18 08:52:58;;;;;;;15.15;11.90;;;23.60;99.90;;;;;;5007078;28;20051;-73
2023/06/18 08:55:24;;;;;;;;;;;23.80;99.90;;;;;;5036900;28;20087;-73
2023/06/18 08:57:56;;;;;;;16.95;11.93;;;24.00;99.90;;;;;;5035863;28;19917;-73
2023/06/18 09:00:22;;;;;;;15.93;10.52;;;24.10;99.90;;;;;;5036243;28;20062;-73
2023/06/18 09:02:50;;;;;;;15.35;10.10;;;25.60;99.90;;;;;;5036389;28;20512;-73
2023/06/18 09:05:16;;;;;;;11.80;9.68;;;24.40;99.90;;;;;;5019508;28;20041;-73
2023/06/18 09:07:41;;;;;;;18.75;8.85;;;24.90;99.90;;;;;;5036002;28;20109;-73
2023/06/18 09:10:08;;;;;;;11.55;9.65;;;24.70;99.90;;;;;;5035644;28;20037;-73
2023/06/18 09:12:34;;;;;;;12.40;9.45;;;24.60;99.90;;;;;;5019353;28;20044;-73
2023/06/18 09:15:00;;;;;;;13.38;9.43;;;24.50;99.90;;;;;;5035802;28;20037;-73
2023/06/18 09:17:26;;;;;;;11.50;9.35;;;24.80;99.90;;;;;;5072966;22;20045;-69
2023/06/18 09:19:54;;;;;;;22.48;9.32;;;24.60;99.90;;;;;;5051917;28;20041;-69
2023/06/18 09:22:20;;;;;;;12.27;8.98;;;24.80;99.90;;;;;;5052459;28;20432;-69
2023/06/18 09:24:46;;;;;;;13.90;8.85;;;24.70;99.90;;;;;;5052469;28;20045;-69
2023/06/18 09:27:11;;;;;;;10.82;8.93;;;24.60;99.90;;;;;;5053340;28;20524;-69
2023/06/18 09:29:41;;;;;;;14.10;10.13;;;25.00;99.90;;;;;;5052205;28;20094;-69
2023/06/18 09:32:09;;;;;;;15.90;9.05;;;24.90;99.90;;;;;;5052270;28;20040;-68
2023/06/18 09:34:36;;;;;;;11.80;9.13;;;24.90;99.90;;;;;;5052263;28;20040;-69
2023/06/18 09:37:03;;;;;;;12.80;9.30;;;25.10;99.90;;;;;;5052109;28;20401;-69
2023/06/18 09:39:29;;;;;;;12.60;10.07;;;25.00;99.90;;;;;;5051910;28;20079;-69
2023/06/18 09:41:55;;;;;;;9.95;8.48;;;25.00;99.90;;;;;;5052147;28;20481;-67
2023/06/18 09:44:22;;;;;;;12.48;8.65;;;25.70;99.90;;;;;;5035434;28;20048;-69
2023/06/18 09:46:57;;;;;;;11.40;8.38;;;25.20;99.90;;;;;;5051525;28;20041;-69
2023/06/18 09:49:25;;;;;;;11.90;9.02;;;25.30;99.90;;;;;;5051573;28;20037;-69
2023/06/18 09:51:51;;;;;;;11.32;8.77;;;25.30;99.90;;;;;;5035641;28;20041;-70
2023/06/18 09:54:17;;;;;;;13.05;8.95;;;25.60;99.90;;;;;;5035318;28;20095;-67
2023/06/18 09:56:57;;;;;;;11.75;8.68;;;25.80;99.90;;;;;;5051381;28;20037;-69
2023/06/18 09:59:23;;;;;;;10.07;7.40;;;25.80;99.90;;;;;;5051265;28;20056;-69
2023/06/18 10:01:49;;;;;;;14.18;7.63;;;25.90;99.90;;;;;;5035359;28;20420;-69
2023/06/18 10:04:16;;;;;;;11.05;6.93;;;26.20;99.90;;;;;;5051677;28;20430;-69
2023/06/18 10:07:05;;;;;;;10.85;7.55;;;26.10;99.90;;;;;;5051266;28;20041;-67
2023/06/18 10:09:40;;;;;;;10.52;7.55;;;26.10;99.90;;;;;;5051336;28;20508;-69
2023/06/18 10:12:06;;;;;;;9.13;6.88;;;26.40;99.90;;;;;;5047853;28;20044;-69
2023/06/18 10:14:33;;;;;;;9.65;7.55;;;26.30;99.90;;;;;;5051489;28;20086;-69
2023/06/18 10:17:24;;;;;;;10.18;6.68;;;26.50;99.90;;;;;;5050933;28;20052;-70
2023/06/18 10:19:57;;;;;;;12.77;8.10;;;26.50;99.70;;;;;;5040132;28;20057;-69
2023/06/18 10:22:27;;;;;;;9.65;6.72;;;26.80;99.90;;;;;;5034677;28;20048;-71
2023/06/18 10:25:06;;;;;;;9.15;7.90;;;26.90;99.90;;;;;;5034676;28;20047;-70
2023/06/18 10:27:33;;;;;;;12.45;7.43;;;26.90;99.70;;;;;;5050804;28;20051;-70
2023/06/18 10:30:00;;;;;;;8.30;7.18;;;26.80;99.40;;;;;;5051135;28;20045;-70
2023/06/18 10:32:27;;;;;;;8.18;7.07;;;26.80;99.80;;;;;;5050166;28;20524;-70
2023/06/18 10:34:56;;;;;;;9.20;7.40;;;26.80;99.50;;;;;;5051285;28;20098;-70
2023/06/18 10:37:23;;;;;;;12.00;7.32;;;27.00;99.70;;;;;;5050831;28;20401;-70
2023/06/18 10:39:49;;;;;;;9.48;6.63;;;27.00;99.50;;;;;;5051022;28;20405;-69
2023/06/18 10:42:15;;;;;;;10.43;7.30;;;27.40;99.80;;;;;;5050866;28;20044;-69
2023/06/18 10:44:47;;;;;;;8.57;7.53;;;26.80;99.30;;;;;;5050788;28;20070;-69
2023/06/18 10:47:30;;;;;;;11.23;7.22;;;26.80;99.40;;;;;;5050212;28;20131;-69
2023/06/18 10:50:17;;;;;;;10.45;7.18;;;26.90;99.40;;;;;;5050747;28;20094;-69
2023/06/18 10:52:49;;;;;;;8.95;7.32;;;26.70;98.80;;;;;;5034192;28;20044;-69
2023/06/18 10:55:20;;;;;;;12.18;7.18;;;26.60;99.20;;;;;;5034088;28;20033;-69
2023/06/18 10:57:55;;;;;;;10.85;7.07;;;26.60;98.90;;;;;;5050317;28;20087;-69
2023/06/18 11:00:29;;;;;;;10.23;7.43;;;26.70;99.70;;;;;;5050730;28;20218;-70
2023/06/18 11:03:15;;;;;;;10.77;7.40;;;27.00;99.50;;;;;;5050699;28;20040;-69
2023/06/18 11:05:46;;;;;;;11.25;7.07;;;27.10;99.10;;;;;;5051891;28;20115;-69
2023/06/18 11:08:14;;;;;;;9.50;7.50;;;27.10;98.90;;;;;;5050562;28;20045;-69
2023/06/18 11:10:47;;;;;;;10.65;7.22;;;27.00;99.20;;;;;;5050419;28;20041;-69
2023/06/18 11:13:13;;;;;;;7.82;6.80;;;27.20;98.90;;;;;;5050762;28;20041;-69
2023/06/18 11:15:57;;;;;;;8.13;6.50;;;27.30;98.90;;;;;;5050368;28;20044;-69
2023/06/18 11:18:27;;;;;;;12.60;7.22;;;27.50;98.70;;;;;;5050191;28;20036;-69
2023/06/18 11:20:55;;;;;;;9.15;6.55;;;27.60;98.40;;;;;;5050592;28;20540;-70
2023/06/18 11:23:24;;;;;;;9.38;6.10;;;27.50;98.80;;;;;;5050683;28;20041;-71
2023/06/18 11:25:50;;;;;;;8.40;6.85;;;27.30;98.10;;;;;;5049973;28;20068;-69
2023/06/18 11:28:16;;;;;;;7.97;6.80;;;27.40;98.50;;;;;;5049880;28;20468;-69
2023/06/18 11:30:51;;;;;;;9.52;6.75;;;27.50;98.70;;;;;;5033669;28;20040;-69
2023/06/18 11:33:28;;;;;;;9.63;7.10;;;27.70;99.00;;;;;;5033638;28;20501;-69
2023/06/18 11:36:05;;;;;;;8.63;6.80;;;27.50;98.00;;;;;;5050957;28;20507;-69
2023/06/18 11:38:31;;;;;;;7.50;6.70;;;27.60;98.40;;;;;;5050268;28;20111;-69
2023/06/18 11:40:57;;;;;;;7.53;6.80;;;27.70;98.50;;;;;;5052097;28;20068;-70
2023/06/18 11:43:23;;;;;;;9.50;6.65;;;27.60;98.70;;;;;;5054334;28;20221;-69
2023/06/18 11:45:53;;;;;;;7.10;6.15;;;28.10;99.20;;;;;;5039956;28;20044;-70
2023/06/18 11:48:22;;;;;;;11.43;7.15;;;27.90;99.50;;;;;;5055688;28;20040;-69
2023/06/18 11:50:53;;;;;;;9.73;6.95;;;28.40;98.30;;;;;;5061525;28;20042;-69
2023/06/18 11:53:20;;;;;;;7.18;6.43;;;28.20;96.80;;;;;;5056039;28;20549;-70
2023/06/18 11:55:46;;;;;;;9.50;6.65;;;28.20;97.00;;;;;;5052601;28;20096;-67
2023/06/18 11:58:13;;;;;;;8.63;6.50;;;28.20;97.10;;;;;;5054642;28;20442;-69
2023/06/18 12:00:39;;;;;;;8.90;6.85;;;28.50;97.20;;;;;;5055808;28;20041;-69
2023/06/18 12:03:04;;;;;;;8.23;6.22;;;28.20;96.70;;;;;;5056314;28;20043;-70
2023/06/18 12:05:37;;;;;;;8.15;5.97;;;28.40;96.40;;;;;;5039708;28;20032;-70
2023/06/18 12:08:13;;;;;;;6.45;5.55;;;28.50;96.40;;;;;;5057128;28;20507;-69
2023/06/18 12:10:41;;;;;;;7.45;5.85;;;28.50;96.00;;;;;;5056334;28;20076;-70
2023/06/18 12:13:11;;;;;;;11.15;6.40;;;28.50;96.40;;;;;;5056050;28;20457;-70
2023/06/18 12:15:45;;;;;;;5.82;5.32;;;28.60;96.10;;;;;;5055401;28;20435;-69
2023/06/18 12:18:28;;;;;;;8.38;5.82;;;28.80;96.90;;;;;;5076240;28;20381;-68
2023/06/18 12:20:54;;;;;;;7.90;6.25;;;28.90;96.10;;;;;;5076226;28;20098;-69
2023/06/18 12:23:22;;;;;;;7.53;6.05;;;28.80;95.90;;;;;;5076390;28;20036;-70
2023/06/18 12:25:48;;;;;;;7.80;5.80;;;28.80;95.90;;;;;;5075917;28;20037;-71
2023/06/18 12:28:13;;;;;;;8.77;5.80;;;28.70;95.70;;;;;;5076203;28;20052;-72
2023/06/18 12:30:40;;;;;;;5.95;5.35;;;28.80;95.70;;;;;;5076211;28;20703;-71
2023/06/18 12:33:11;;;;;;;7.40;5.40;;;28.70;96.00;;;;;;5076718;28;20045;-71
2023/06/18 12:35:40;;;;;;;7.47;5.25;;;28.70;95.00;;;;;;5072203;28;20108;-71
2023/06/18 12:38:09;;;;;;;11.27;6.00;;;28.40;95.50;;;;;;5057909;28;20409;-71
2023/06/18 12:40:50;;;;;;;6.50;5.65;;;28.40;95.60;;;;;;5056401;28;20539;-71
2023/06/18 12:43:16;;;;;;;6.25;5.50;;;28.60;96.30;;;;;;5039476;28;20099;-71